Time;durP1;ratioP1;P1;durP2;ratioP2;P2;SDS_P1;SDS_P2;PMS_P1;PMS_P2;Temp;Humidity;BMP_temperature;BMP_pressure;BME280_temperature;BME280_humidity;BME280_pressure;Samples;Min_cycle;Max_cycle;Signal;HPM_P1;HPM_P2
2022/05/12 00:01:54;;;;;;;15.50;1.58;;;17.20;99.90;;;;;;5052898;28;20025;-70
2022/05/12 00:04:22;;;;;;;10.23;2.05;;;17.20;99.90;;;;;;5052599;28;20033;-69
2022/05/12 00:06:49;;;;;;;9.18;1.55;;;17.20;99.90;;;;;;5054329;28;20028;-69
2022/05/12 00:09:17;;;;;;;7.07;1.88;;;17.20;99.90;;;;;;5054245;28;20034;-68
2022/05/12 00:11:44;;;;;;;13.23;2.67;;;17.20;99.90;;;;;;5054411;28;20025;-69
2022/05/12 00:14:12;;;;;;;9.63;2.08;;;17.20;99.90;;;;;;5065214;28;20028;-68
2022/05/12 00:16:40;;;;;;;23.35;3.05;;;17.30;99.90;;;;;;5073964;28;20032;-68
2022/05/12 00:19:07;;;;;;;5.38;1.70;;;17.30;99.90;;;;;;5074344;28;20032;-72
2022/05/12 00:21:35;;;;;;;9.75;1.83;;;17.30;99.90;;;;;;5060818;28;20135;-69
2022/05/12 00:24:02;;;;;;;8.57;1.55;;;17.30;99.90;;;;;;5054467;28;20024;-76
2022/05/12 00:26:33;;;;;;;28.13;3.13;;;17.30;99.90;;;;;;5054285;28;20381;-73
2022/05/12 00:29:05;;;;;;;15.82;2.13;;;17.30;99.90;;;;;;5054428;28;20462;-76
2022/05/12 00:31:36;;;;;;;16.05;3.50;;;17.30;99.90;;;;;;5054391;28;20043;-76
2022/05/12 00:34:05;;;;;;;15.13;2.57;;;17.40;99.90;;;;;;4927007;28;3640314;-75
2022/05/12 00:36:34;;;;;;;19.25;3.17;;;17.40;99.90;;;;;;5055112;28;20091;-77
2022/05/12 00:39:03;;;;;;;15.50;1.75;;;17.50;99.90;;;;;;5055540;28;20458;-70
2022/05/12 00:41:31;;;;;;;17.00;2.10;;;17.50;99.90;;;;;;5055114;28;20032;-72
2022/05/12 00:44:02;;;;;;;12.50;2.45;;;17.50;99.90;;;;;;5054928;28;20413;-69
2022/05/12 00:46:36;;;;;;;13.57;2.90;;;17.60;99.90;;;;;;5055034;28;20385;-75
2022/05/12 00:49:18;;;;;;;15.45;2.67;;;17.60;99.90;;;;;;5054907;28;20440;-69
2022/05/12 00:51:52;;;;;;;15.75;3.33;;;17.60;99.90;;;;;;5055022;28;20037;-74
2022/05/12 00:54:37;;;;;;;10.55;2.08;;;17.70;99.90;;;;;;5054879;28;20389;-75
2022/05/12 00:57:08;;;;;;;13.23;3.20;;;17.70;99.90;;;;;;5054696;28;20090;-70
2022/05/12 00:59:37;;;;;;;24.73;2.72;;;17.70;99.90;;;;;;5054778;28;20079;-76
2022/05/12 01:02:10;;;;;;;11.18;2.42;;;17.80;99.90;;;;;;5054699;28;20382;-77
2022/05/12 01:04:39;;;;;;;10.95;2.15;;;17.80;99.90;;;;;;5053725;28;20120;-76
2022/05/12 01:07:07;;;;;;;21.38;3.58;;;17.80;99.90;;;;;;5054772;28;20021;-74
2022/05/12 01:09:35;;;;;;;16.17;3.13;;;17.80;99.90;;;;;;5054571;28;20075;-76
2022/05/12 01:12:03;;;;;;;11.75;3.03;;;17.80;99.90;;;;;;5054399;28;20470;-74
2022/05/12 01:14:31;;;;;;;18.17;2.75;;;17.90;99.90;;;;;;5054260;28;20017;-76
2022/05/12 01:17:01;;;;;;;13.93;2.90;;;17.90;99.90;;;;;;5054336;28;20420;-77
2022/05/12 01:19:35;;;;;;;9.02;2.00;;;17.90;99.90;;;;;;5054331;28;20047;-76
2022/05/12 01:22:05;;;;;;;17.67;3.13;;;18.00;99.90;;;;;;5054399;28;20104;-77
2022/05/12 01:24:45;;;;;;;17.38;2.50;;;18.00;99.90;;;;;;5054167;28;20025;-76
2022/05/12 01:27:20;;;;;;;32.60;2.80;;;18.00;99.90;;;;;;5054366;28;20274;-76
2022/05/12 01:29:51;;;;;;;10.55;3.00;;;18.10;99.90;;;;;;5054164;28;20051;-77
2022/05/12 01:32:22;;;;;;;18.85;2.53;;;18.10;99.90;;;;;;5054226;28;20032;-76
2022/05/12 01:34:50;;;;;;;19.27;2.92;;;18.20;99.90;;;;;;5052631;28;20516;-76
2022/05/12 01:37:18;;;;;;;23.45;3.25;;;18.20;99.90;;;;;;5054087;28;20025;-73
2022/05/12 01:39:45;;;;;;;13.27;2.92;;;18.20;99.90;;;;;;5054290;28;20026;-75
2022/05/12 01:42:14;;;;;;;16.45;2.42;;;18.30;99.90;;;;;;5053847;28;20481;-74
2022/05/12 01:44:42;;;;;;;13.45;3.03;;;18.30;99.90;;;;;;5053681;28;20064;-76
2022/05/12 01:47:11;;;;;;;19.83;3.53;;;18.30;99.90;;;;;;5053851;28;20025;-75
2022/05/12 01:49:39;;;;;;;17.25;2.88;;;18.40;99.90;;;;;;5053723;28;20382;-72
2022/05/12 01:52:10;;;;;;;15.45;2.50;;;18.40;99.90;;;;;;5053690;28;20416;-71
2022/05/12 01:54:38;;;;;;;12.38;2.85;;;18.40;99.90;;;;;;5053441;28;20021;-76
2022/05/12 01:57:06;;;;;;;19.08;2.45;;;18.40;99.90;;;;;;5053402;28;20049;-76
2022/05/12 01:59:34;;;;;;;10.70;2.55;;;18.50;99.90;;;;;;5053550;28;20103;-75
2022/05/12 02:02:03;;;;;;;21.15;3.65;;;18.50;99.90;;;;;;5053540;28;20458;-75
2022/05/12 02:04:30;;;;;;;14.20;2.42;;;18.50;99.90;;;;;;5053439;28;20033;-75
2022/05/12 02:06:58;;;;;;;19.65;3.22;;;18.60;99.90;;;;;;5053730;28;20029;-76
2022/05/12 02:09:26;;;;;;;13.27;3.00;;;18.60;99.90;;;;;;5053472;28;20017;-76
2022/05/12 02:11:54;;;;;;;16.45;2.72;;;18.60;99.90;;;;;;5053818;28;20025;-76
2022/05/12 02:14:21;;;;;;;24.92;3.30;;;18.50;99.90;;;;;;5068348;28;20078;-75
2022/05/12 02:16:49;;;;;;;11.40;2.40;;;18.50;99.90;;;;;;5072760;28;20103;-70
2022/05/12 02:19:17;;;;;;;14.55;3.20;;;18.50;99.90;;;;;;5070684;28;20422;-76
2022/05/12 02:21:45;;;;;;;17.20;3.88;;;18.50;99.90;;;;;;5073010;28;20477;-77
2022/05/12 02:24:13;;;;;;;13.85;2.75;;;18.40;99.90;;;;;;5072826;28;20036;-76
2022/05/12 02:26:41;;;;;;;12.13;2.45;;;18.30;99.90;;;;;;5072790;28;20020;-77
2022/05/12 02:29:08;;;;;;;14.48;3.28;;;18.30;99.90;;;;;;5071815;28;20021;-76
2022/05/12 02:31:36;;;;;;;13.52;2.22;;;18.30;99.90;;;;;;5069822;28;20027;-77
2022/05/12 02:34:04;;;;;;;14.13;2.53;;;18.30;99.90;;;;;;5071755;28;20032;-75
2022/05/12 02:36:31;;;;;;;29.50;4.18;;;18.20;99.90;;;;;;5072617;28;20508;-77
2022/05/12 02:38:59;;;;;;;16.95;2.70;;;18.20;99.90;;;;;;5072780;28;20029;-75
2022/05/12 02:41:27;;;;;;;16.30;3.50;;;18.20;99.90;;;;;;5073215;28;20031;-76
2022/05/12 02:43:55;;;;;;;13.80;3.22;;;18.30;99.90;;;;;;5073378;28;20028;-71
2022/05/12 02:46:22;;;;;;;27.75;5.00;;;18.30;99.90;;;;;;5073322;28;20461;-71
2022/05/12 02:48:50;;;;;;;29.30;3.78;;;18.20;99.90;;;;;;5073348;28;20404;-75
2022/05/12 02:51:18;;;;;;;26.63;3.05;;;18.20;99.90;;;;;;5073299;28;20027;-76
2022/05/12 02:53:46;;;;;;;21.08;3.67;;;18.20;99.90;;;;;;5073159;28;20059;-76
2022/05/12 02:56:13;;;;;;;24.65;2.95;;;18.20;99.90;;;;;;5072933;28;20032;-75
2022/05/12 02:58:42;;;;;;;24.27;3.25;;;18.30;99.90;;;;;;5073100;28;20028;-71
2022/05/12 03:01:10;;;;;;;19.50;3.70;;;18.30;99.90;;;;;;5073046;28;20029;-72
2022/05/12 03:03:37;;;;;;;16.02;3.00;;;18.30;99.90;;;;;;5072879;28;20017;-72
2022/05/12 03:06:05;;;;;;;22.90;4.30;;;18.40;99.90;;;;;;5073254;28;20016;-76
2022/05/12 03:08:33;;;;;;;11.93;3.70;;;18.40;99.90;;;;;;5072174;28;20029;-74
2022/05/12 03:11:02;;;;;;;22.85;3.67;;;18.40;99.90;;;;;;5073659;28;20074;-75
2022/05/12 03:13:31;;;;;;;19.23;3.28;;;18.30;99.90;;;;;;5072926;28;20032;-76
2022/05/12 03:15:59;;;;;;;18.95;4.45;;;18.30;99.90;;;;;;5072789;28;20028;-71
2022/05/12 03:18:27;;;;;;;18.98;3.72;;;18.30;99.90;;;;;;5072922;28;20021;-71
2022/05/12 03:20:55;;;;;;;18.10;3.63;;;18.40;99.90;;;;;;5073017;28;20051;-73
2022/05/12 03:23:23;;;;;;;18.90;4.32;;;18.40;99.90;;;;;;5072765;28;20111;-72
2022/05/12 03:25:52;;;;;;;30.15;4.63;;;18.30;99.90;;;;;;5072598;28;20115;-73
2022/05/12 03:28:21;;;;;;;20.52;3.50;;;18.40;99.90;;;;;;5073828;28;20408;-71
2022/05/12 03:30:54;;;;;;;13.63;2.60;;;18.40;99.90;;;;;;5076037;28;20025;-72
2022/05/12 03:33:22;;;;;;;16.42;2.90;;;18.40;99.90;;;;;;5074035;28;20484;-73
2022/05/12 03:35:50;;;;;;;25.38;4.38;;;18.50;99.90;;;;;;5075433;28;20110;-73
2022/05/12 03:38:19;;;;;;;23.33;3.38;;;18.50;99.90;;;;;;5073372;28;20044;-72
2022/05/12 03:40:47;;;;;;;16.70;3.58;;;18.50;99.90;;;;;;5075459;28;20048;-71
2022/05/12 03:44:46;;;;;;;18.30;2.90;;;18.50;99.90;;;;;;5075707;28;20464;-73
2022/05/12 03:46:03;;;;;;;15.68;3.00;;;18.60;99.90;;;;;;5074443;28;20029;-69
2022/05/12 03:48:32;;;;;;;24.05;4.40;;;18.50;99.90;;;;;;5071239;28;20029;-75
2022/05/12 03:51:00;;;;;;;9.63;3.00;;;18.50;99.90;;;;;;5066997;28;20067;-69
2022/05/12 03:53:27;;;;;;;16.45;3.10;;;18.50;99.90;;;;;;5061112;28;20036;-69
2022/05/12 03:55:55;;;;;;;18.08;3.78;;;18.50;99.90;;;;;;5053196;28;20059;-69
2022/05/12 03:58:24;;;;;;;23.92;4.07;;;18.50;99.90;;;;;;5053401;28;20078;-69
2022/05/12 04:00:53;;;;;;;14.77;3.35;;;18.40;99.90;;;;;;5061790;28;20033;-69
2022/05/12 04:03:21;;;;;;;23.30;3.75;;;18.40;99.90;;;;;;5059589;28;20096;-70
2022/05/12 04:05:49;;;;;;;17.45;4.22;;;18.30;99.90;;;;;;5052610;28;20037;-69
2022/05/12 04:08:16;;;;;;;24.90;3.80;;;18.30;99.90;;;;;;5052659;28;20009;-71
2022/05/12 04:10:44;;;;;;;20.50;3.42;;;18.30;99.90;;;;;;5052720;28;20100;-71
2022/05/12 04:13:12;;;;;;;12.30;3.22;;;18.20;99.90;;;;;;5053058;28;20025;-71
2022/05/12 04:15:40;;;;;;;14.82;3.67;;;18.20;99.90;;;;;;5052219;28;20025;-71
2022/05/12 04:18:08;;;;;;;17.13;3.53;;;18.20;99.90;;;;;;5052736;28;20663;-70
2022/05/12 04:20:37;;;;;;;17.35;4.20;;;18.20;99.90;;;;;;5054698;28;20029;-70
2022/05/12 04:23:05;;;;;;;20.52;3.30;;;18.20;99.90;;;;;;5068165;28;20070;-71
2022/05/12 04:25:34;;;;;;;15.43;3.17;;;18.20;99.90;;;;;;5070867;28;20492;-70
2022/05/12 04:28:02;;;;;;;21.10;4.47;;;18.20;99.90;;;;;;5073961;28;20017;-70
2022/05/12 04:30:30;;;;;;;18.33;4.18;;;18.20;99.90;;;;;;5074593;28;20107;-70
2022/05/12 04:35:09;;;;;;;12.13;3.50;;;18.20;99.90;;;;;;5070704;28;20016;-70
2022/05/12 04:35:45;;;;;;;11.25;3.03;;;18.30;99.90;;;;;;5073011;28;20395;-71
2022/05/12 04:38:12;;;;;;;16.70;3.28;;;18.30;99.90;;;;;;5074216;28;20021;-70
2022/05/12 04:40:40;;;;;;;10.80;3.17;;;18.30;99.90;;;;;;5073448;28;20473;-72
2022/05/12 04:43:12;;;;;;;16.48;4.38;;;18.30;99.90;;;;;;5074932;28;20031;-73
2022/05/12 04:45:40;;;;;;;13.98;3.20;;;18.30;99.90;;;;;;5074887;28;20040;-71
2022/05/12 04:48:08;;;;;;;9.75;3.50;;;18.30;99.90;;;;;;5074490;28;20032;-70
2022/05/12 04:50:40;;;;;;;19.40;5.05;;;18.30;99.90;;;;;;5074654;28;20031;-70
2022/05/12 04:53:08;;;;;;;18.25;3.85;;;18.30;99.90;;;;;;5074046;28;20071;-70
2022/05/12 04:55:37;;;;;;;22.38;3.38;;;18.30;99.90;;;;;;5074420;28;20027;-70
2022/05/12 04:58:05;;;;;;;17.92;3.97;;;18.30;99.90;;;;;;5074272;28;20125;-70
2022/05/12 05:00:40;;;;;;;12.32;2.88;;;18.30;99.90;;;;;;5074580;28;20048;-70
2022/05/12 05:03:09;;;;;;;14.05;3.35;;;18.30;99.90;;;;;;5074304;28;20035;-70
2022/05/12 05:05:37;;;;;;;16.27;2.85;;;18.20;99.90;;;;;;5074485;28;20493;-70
2022/05/12 05:08:06;;;;;;;9.32;3.22;;;18.20;99.90;;;;;;5074289;28;20508;-70
2022/05/12 05:10:34;;;;;;;11.90;2.83;;;18.20;99.90;;;;;;5074624;28;20029;-70
2022/05/12 05:13:03;;;;;;;15.60;3.40;;;18.20;99.90;;;;;;5065023;28;20067;-70
2022/05/12 05:15:31;;;;;;;9.68;2.92;;;18.20;99.90;;;;;;5054163;28;20021;-70
2022/05/12 05:17:59;;;;;;;12.73;3.20;;;18.20;99.90;;;;;;5054068;28;20528;-70
2022/05/12 05:20:30;;;;;;;14.75;3.97;;;18.20;99.90;;;;;;5054199;28;20037;-70
2022/05/12 05:22:57;;;;;;;17.13;3.63;;;18.10;99.90;;;;;;5069633;28;20029;-70
2022/05/12 05:25:25;;;;;;;14.82;3.35;;;18.20;99.90;;;;;;5074077;28;20434;-71
2022/05/12 05:27:55;;;;;;;17.25;4.60;;;18.10;99.90;;;;;;5073685;28;20023;-70
2022/05/12 05:30:26;;;;;;;16.23;3.80;;;18.10;99.90;;;;;;5073990;28;20020;-70
2022/05/12 05:32:55;;;;;;;17.75;3.10;;;18.10;99.90;;;;;;5073950;28;20029;-70
2022/05/12 05:35:23;;;;;;;10.85;2.70;;;18.10;99.90;;;;;;5073479;28;20052;-70
2022/05/12 05:37:53;;;;;;;8.30;2.45;;;18.00;99.90;;;;;;5073663;28;20024;-70
2022/05/12 05:40:23;;;;;;;9.95;2.50;;;18.10;99.90;;;;;;5073628;28;20043;-70
2022/05/12 05:42:51;;;;;;;15.98;2.45;;;18.10;99.90;;;;;;5073941;28;20081;-70
2022/05/12 05:45:20;;;;;;;5.70;2.42;;;18.00;99.90;;;;;;5073509;28;20500;-70
2022/05/12 05:47:57;;;;;;;11.98;3.22;;;18.10;99.90;;;;;;5072245;28;20544;-70
2022/05/12 05:53:28;;;;;;;8.57;2.20;;;18.00;99.90;;;;;;5056583;28;20066;-70
2022/05/12 05:55:59;;;;;;;13.20;2.72;;;18.00;99.90;;;;;;5053503;28;20401;-71
2022/05/12 05:58:28;;;;;;;8.73;2.67;;;18.00;99.90;;;;;;5053342;28;20029;-72
2022/05/12 06:00:56;;;;;;;10.18;2.58;;;18.00;99.90;;;;;;5053480;28;20017;-70
2022/05/12 06:03:25;;;;;;;9.27;2.55;;;18.00;99.90;;;;;;5053165;28;20104;-70
2022/05/12 06:05:55;;;;;;;10.43;2.72;;;18.00;99.90;;;;;;5053473;28;20073;-70
2022/05/12 06:08:24;;;;;;;15.32;2.33;;;17.90;99.90;;;;;;5053347;28;20058;-70
2022/05/12 06:10:52;;;;;;;14.57;2.38;;;17.90;99.90;;;;;;5053374;28;20108;-71
2022/05/12 06:13:20;;;;;;;8.95;2.90;;;17.90;99.90;;;;;;5053343;28;20108;-71
2022/05/12 06:15:49;;;;;;;13.18;3.00;;;17.90;99.90;;;;;;5053005;28;20104;-71
2022/05/12 06:18:18;;;;;;;8.52;2.85;;;17.90;99.90;;;;;;5053081;28;20025;-70
2022/05/12 06:20:49;;;;;;;13.18;3.28;;;17.90;99.90;;;;;;5053062;28;20025;-70
2022/05/12 06:23:17;;;;;;;10.73;2.97;;;17.90;99.90;;;;;;5052453;28;20021;-70
2022/05/12 06:25:45;;;;;;;11.93;2.65;;;17.90;99.90;;;;;;5052509;28;20106;-70
2022/05/12 06:28:13;;;;;;;10.13;2.28;;;17.90;99.90;;;;;;5052484;28;20028;-71
2022/05/12 06:30:41;;;;;;;11.63;3.25;;;17.80;99.90;;;;;;5053179;28;20059;-70
2022/05/12 06:33:14;;;;;;;12.80;3.35;;;17.90;99.90;;;;;;5053139;28;20417;-70
2022/05/12 06:35:42;;;;;;;8.93;2.55;;;17.80;99.90;;;;;;5052952;28;20037;-70
2022/05/12 06:38:11;;;;;;;16.58;2.33;;;17.80;99.90;;;;;;5046417;28;20032;-71
2022/05/12 06:40:40;;;;;;;8.35;2.67;;;17.80;99.90;;;;;;5061936;28;20074;-70
2022/05/12 06:43:08;;;;;;;11.45;2.78;;;17.80;99.90;;;;;;5073187;28;20103;-70
2022/05/12 06:45:36;;;;;;;22.35;3.40;;;17.80;99.90;;;;;;5073209;28;20067;-70
2022/05/12 06:48:04;;;;;;;11.02;2.60;;;17.70;99.90;;;;;;5073306;28;20036;-70
2022/05/12 06:50:32;;;;;;;15.02;3.15;;;17.70;99.90;;;;;;5073193;28;20430;-70
2022/05/12 06:53:00;;;;;;;13.65;2.35;;;17.70;99.90;;;;;;5073262;28;20024;-69
2022/05/12 06:55:29;;;;;;;8.82;2.55;;;17.70;99.90;;;;;;5069641;28;20044;-69
2022/05/12 06:57:58;;;;;;;10.35;2.85;;;17.70;99.90;;;;;;5072862;28;20434;-70
2022/05/12 07:00:26;;;;;;;11.43;2.42;;;17.70;99.90;;;;;;5072725;28;20021;-70
2022/05/12 07:02:54;;;;;;;9.88;2.03;;;17.70;99.90;;;;;;5074138;28;20036;-76
2022/05/12 07:05:24;;;;;;;14.20;2.45;;;17.70;99.90;;;;;;5077017;28;20056;-76
2022/05/12 07:07:53;;;;;;;5.75;1.50;;;17.60;99.90;;;;;;5077054;28;20536;-75
2022/05/12 07:10:24;;;;;;;7.00;2.47;;;17.60;99.90;;;;;;5076823;28;20046;-76
2022/05/12 07:12:52;;;;;;;12.13;2.80;;;17.60;99.90;;;;;;5077260;28;20021;-76
2022/05/12 07:15:25;;;;;;;7.93;2.03;;;17.60;99.90;;;;;;5076765;28;20362;-76
2022/05/12 07:17:53;;;;;;;12.65;2.40;;;17.60;99.90;;;;;;5062927;28;20029;-76
2022/05/12 07:28:38;;;;;;;;;;;17.60;99.90;;;;;;5063335;28;20040;-76
2022/05/12 07:31:09;;;;;;;12.15;2.63;;;17.60;99.90;;;;;;5064367;28;19938;-76
2022/05/12 07:33:46;;;;;;;16.02;2.70;;;17.60;99.90;;;;;;5058325;28;20021;-76
2022/05/12 07:36:26;;;;;;;9.57;2.30;;;17.60;99.90;;;;;;5055901;28;20064;-76
2022/05/12 07:38:58;;;;;;;9.70;2.20;;;17.60;99.90;;;;;;5055991;28;20462;-75
2022/05/12 07:41:27;;;;;;;10.85;1.85;;;17.50;99.90;;;;;;5056006;28;20043;-74
2022/05/12 07:43:55;;;;;;;14.45;2.70;;;17.50;99.90;;;;;;5055259;28;20032;-75
2022/05/12 07:46:27;;;;;;;9.05;2.83;;;17.60;99.90;;;;;;5058982;28;20067;-76
2022/05/12 07:48:56;;;;;;;6.03;2.38;;;17.50;99.90;;;;;;5059471;28;20063;-71
2022/05/12 07:51:24;;;;;;;9.38;2.53;;;17.50;99.90;;;;;;5060376;28;20029;-74
2022/05/12 07:53:52;;;;;;;9.70;3.03;;;17.50;99.90;;;;;;5060159;28;20500;-76
2022/05/12 07:56:23;;;;;;;11.60;2.78;;;17.50;99.90;;;;;;5059083;28;20021;-76
2022/05/12 07:58:52;;;;;;;11.25;2.70;;;17.50;99.90;;;;;;5059928;28;20009;-76
2022/05/12 08:01:20;;;;;;;9.50;3.30;;;17.50;99.90;;;;;;5063464;28;20067;-76
2022/05/12 08:03:49;;;;;;;9.55;3.28;;;17.50;99.90;;;;;;5062692;28;20514;-76
2022/05/12 08:06:17;;;;;;;8.55;3.13;;;17.50;99.90;;;;;;5068235;28;20032;-75
2022/05/12 08:08:48;;;;;;;14.20;2.92;;;17.50;99.90;;;;;;5069853;28;20055;-75
2022/05/12 08:11:16;;;;;;;8.68;2.42;;;17.50;99.90;;;;;;5073302;28;20029;-76
2022/05/12 08:13:47;;;;;;;15.07;3.63;;;17.50;99.90;;;;;;5072321;28;20550;-75
2022/05/12 08:16:19;;;;;;;9.00;2.97;;;17.50;99.90;;;;;;5073539;28;20029;-75
2022/05/12 08:18:49;;;;;;;7.93;2.78;;;17.50;99.90;;;;;;5073733;28;20027;-74
2022/05/12 08:21:19;;;;;;;8.45;2.38;;;17.50;99.90;;;;;;5073410;28;20024;-76
2022/05/12 08:23:50;;;;;;;19.75;3.35;;;17.50;99.90;;;;;;5072962;28;20023;-76
2022/05/12 08:26:18;;;;;;;10.18;2.80;;;17.50;99.90;;;;;;5073025;28;20064;-76
2022/05/12 08:28:47;;;;;;;8.00;2.30;;;17.50;99.90;;;;;;5070366;28;20438;-75
2022/05/12 08:31:15;;;;;;;15.77;2.92;;;17.50;99.90;;;;;;5073102;28;20021;-76
2022/05/12 08:33:42;;;;;;;7.63;2.17;;;17.50;99.90;;;;;;5070264;28;20051;-76
2022/05/12 08:36:11;;;;;;;8.23;1.73;;;17.40;99.90;;;;;;5072906;28;20049;-76
2022/05/12 08:38:41;;;;;;;13.15;2.60;;;17.50;99.90;;;;;;5060632;28;20028;-75
2022/05/12 08:41:48;;;;;;;9.57;2.22;;;17.50;99.90;;;;;;5072074;28;20013;-75
2022/05/12 08:44:19;;;;;;;8.93;2.50;;;17.40;99.90;;;;;;5063601;28;20047;-74
2022/05/12 08:46:57;;;;;;;12.02;2.17;;;17.40;99.90;;;;;;5073491;28;20036;-75
2022/05/12 08:49:48;;;;;;;15.80;2.28;;;17.40;99.90;;;;;;5073853;28;20098;-75
2022/05/12 08:52:44;;;;;;;9.23;2.45;;;17.40;99.90;;;;;;5074150;28;20020;-76
2022/05/12 08:55:25;;;;;;;10.35;2.25;;;17.40;99.90;;;;;;5073679;28;20499;-76
2022/05/12 08:58:00;;;;;;;9.55;1.90;;;17.40;99.90;;;;;;5073944;28;20031;-76
2022/05/12 09:00:33;;;;;;;12.68;2.55;;;17.40;99.90;;;;;;5073548;28;20013;-75
2022/05/12 09:03:19;;;;;;;11.45;1.77;;;17.40;99.90;;;;;;5073421;28;20025;-76
2022/05/12 09:06:04;;;;;;;8.50;2.25;;;17.40;99.90;;;;;;5073172;28;20074;-77
2022/05/12 09:08:57;;;;;;;11.50;2.55;;;17.40;99.90;;;;;;5068386;28;20119;-76
2022/05/12 09:11:39;;;;;;;12.05;3.42;;;17.40;99.90;;;;;;5070451;28;20032;-75
2022/05/12 09:14:12;;;;;;;5.72;1.95;;;17.40;99.90;;;;;;5070355;28;20017;-76
2022/05/12 09:16:40;;;;;;;10.38;2.30;;;17.40;99.90;;;;;;5071192;28;20039;-76
2022/05/12 09:19:19;;;;;;;6.05;2.17;;;17.40;99.90;;;;;;5070746;28;20019;-75
2022/05/12 09:21:46;;;;;;;6.65;2.67;;;17.40;99.90;;;;;;5070478;28;20025;-75
2022/05/12 09:24:14;;;;;;;15.52;3.53;;;17.40;99.90;;;;;;5070912;28;20037;-75
2022/05/12 09:27:06;;;;;;;11.68;3.40;;;17.40;99.90;;;;;;5070538;28;20020;-76
2022/05/12 09:29:44;;;;;;;6.18;2.60;;;17.40;99.90;;;;;;5070713;28;20028;-75
2022/05/12 09:32:11;;;;;;;10.27;2.80;;;17.40;99.90;;;;;;5070465;28;20024;-76
2022/05/12 09:34:46;;;;;;;12.93;2.72;;;17.40;99.90;;;;;;5070024;28;20389;-76
2022/05/12 09:37:28;;;;;;;8.35;2.58;;;17.40;99.90;;;;;;5070556;28;20028;-75
2022/05/12 09:40:19;;;;;;;17.20;2.63;;;17.40;99.90;;;;;;5069094;28;20126;-74
2022/05/12 09:42:53;;;;;;;9.80;2.47;;;17.40;99.90;;;;;;5070380;28;20465;-75
2022/05/12 09:45:29;;;;;;;10.77;2.65;;;17.40;99.90;;;;;;5070858;28;20479;-75
2022/05/12 09:48:33;;;;;;;5.45;2.00;;;17.40;99.90;;;;;;5070866;28;20016;-75
2022/05/12 09:51:26;;;;;;;9.63;2.08;;;17.40;99.90;;;;;;5037616;28;20028;-76
2022/05/12 09:53:56;;;;;;;16.05;2.08;;;17.50;99.90;;;;;;5065121;28;20178;-75
2022/05/12 09:56:35;;;;;;;9.05;1.98;;;17.50;99.90;;;;;;5069963;28;20036;-74
2022/05/12 09:59:28;;;;;;;14.25;2.20;;;17.50;99.90;;;;;;5069497;28;20396;-75
2022/05/12 10:02:06;;;;;;;6.45;1.60;;;17.50;99.90;;;;;;5070818;28;20023;-76
2022/05/12 10:10:28;;;;;;;6.32;1.95;;;17.50;99.90;;;;;;5059274;28;20377;-74
2022/05/12 10:13:00;;;;;;;11.65;2.28;;;17.50;99.90;;;;;;5054502;28;20017;-75
2022/05/12 10:15:37;;;;;;;8.45;1.65;;;17.50;99.90;;;;;;5052499;28;20021;-75
2022/05/12 10:18:37;;;;;;;4.32;1.55;;;17.50;99.90;;;;;;5052937;28;20485;-75
2022/05/12 10:21:14;;;;;;;11.02;1.88;;;17.50;99.90;;;;;;5068408;28;20013;-75
2022/05/12 10:24:00;;;;;;;6.80;1.95;;;17.50;99.90;;;;;;5066200;28;20063;-73
2022/05/12 10:26:59;;;;;;;13.50;2.47;;;17.50;99.90;;;;;;5069250;28;20550;-75
2022/05/12 10:29:42;;;;;;;9.07;2.85;;;17.50;99.90;;;;;;5068798;28;20550;-72
2022/05/12 10:32:39;;;;;;;8.88;3.05;;;17.50;99.90;;;;;;5070428;28;20016;-78
2022/05/12 10:35:23;;;;;;;10.35;3.15;;;17.50;99.90;;;;;;5069065;28;20036;-74
2022/05/12 10:38:20;;;;;;;11.90;3.17;;;17.50;99.90;;;;;;5062312;28;20025;-77
2022/05/12 10:41:27;;;;;;;8.57;4.18;;;17.50;99.90;;;;;;5065551;28;20009;-75
2022/05/12 10:44:21;;;;;;;8.95;3.05;;;17.50;99.90;;;;;;5064335;28;20033;-71
2022/05/12 10:47:17;;;;;;;13.48;3.75;;;17.50;99.90;;;;;;5058405;28;20087;-75
2022/05/12 10:50:15;;;;;;;6.07;3.50;;;17.50;99.90;;;;;;5056035;28;20029;-75
2022/05/12 10:52:49;;;;;;;7.88;3.28;;;17.50;99.90;;;;;;5062569;28;20492;-70
2022/05/12 10:55:26;;;;;;;8.60;3.45;;;17.50;99.90;;;;;;5063144;28;20025;-76
2022/05/12 10:57:57;;;;;;;8.43;3.33;;;17.50;99.90;;;;;;5064450;28;20013;-74
2022/05/12 11:00:48;;;;;;;7.43;3.30;;;17.50;99.90;;;;;;5064422;28;20028;-75
2022/05/12 11:03:44;;;;;;;14.32;4.63;;;17.50;99.90;;;;;;5064880;28;20023;-73
2022/05/12 11:06:17;;;;;;;6.68;3.30;;;17.50;99.90;;;;;;5059809;28;20079;-75
2022/05/12 11:09:10;;;;;;;10.55;3.97;;;17.50;99.90;;;;;;5055006;28;20053;-76
2022/05/12 11:11:49;;;;;;;10.65;4.05;;;17.50;99.90;;;;;;5048285;28;20036;-76
2022/05/12 11:14:22;;;;;;;8.05;4.53;;;17.50;99.90;;;;;;5066724;28;20024;-76
2022/05/12 11:17:10;;;;;;;10.18;4.55;;;17.50;99.90;;;;;;5055695;28;20013;-76
2022/05/12 11:19:43;;;;;;;13.30;4.28;;;17.50;99.90;;;;;;5056642;28;20420;-76
2022/05/12 11:22:45;;;;;;;13.77;4.38;;;17.50;99.90;;;;;;5057054;28;20013;-73
2022/05/12 11:25:50;;;;;;;12.30;4.80;;;17.50;99.90;;;;;;5067000;28;20035;-72
2022/05/12 11:31:43;;;;;;;7.95;3.28;;;17.50;99.90;;;;;;5072266;28;20035;-75
2022/05/12 11:34:15;;;;;;;13.38;4.72;;;17.50;99.90;;;;;;5072368;28;20115;-71
2022/05/12 11:36:45;;;;;;;7.20;3.40;;;17.50;99.90;;;;;;5063174;28;20021;-76
2022/05/12 11:39:51;;;;;;;10.40;4.03;;;17.50;99.90;;;;;;5057314;28;20070;-75
2022/05/12 11:42:24;;;;;;;9.73;4.00;;;17.50;99.90;;;;;;5056043;28;20424;-73
2022/05/12 11:45:06;;;;;;;15.60;4.50;;;17.50;99.90;;;;;;5057517;28;20128;-76
2022/05/12 11:47:52;;;;;;;11.60;4.35;;;17.50;99.90;;;;;;5061092;28;20044;-77
2022/05/12 11:50:20;;;;;;;;;;;17.50;99.90;;;;;;5069583;28;20028;-76
2022/05/12 11:52:53;;;;;;;10.82;4.18;;;17.50;99.90;;;;;;5067747;28;19950;-77
2022/05/12 11:55:52;;;;;;;8.07;3.50;;;17.40;99.90;;;;;;5076355;28;20028;-76
2022/05/12 11:58:35;;;;;;;12.25;4.72;;;17.40;99.90;;;;;;5070878;28;20024;-76
2022/05/12 12:01:08;;;;;;;10.48;4.07;;;17.50;99.90;;;;;;5060745;28;20557;-74
2022/05/12 12:03:46;;;;;;;7.60;3.53;;;17.40;99.90;;;;;;5058456;28;20017;-75
2022/05/12 12:06:40;;;;;;;6.03;3.47;;;17.40;99.90;;;;;;5058811;28;20429;-76
2022/05/12 12:09:33;;;;;;;12.80;4.35;;;17.40;99.90;;;;;;5067269;28;20478;-76
2022/05/12 12:12:02;;;;;;;9.85;4.82;;;17.40;99.90;;;;;;5075203;28;20028;-75
2022/05/12 12:14:49;;;;;;;9.93;4.53;;;17.40;99.90;;;;;;5074909;28;20531;-73
2022/05/12 12:17:26;;;;;;;9.23;4.85;;;17.40;99.90;;;;;;5075107;28;20424;-75
2022/05/12 12:19:56;;;;;;;11.32;5.53;;;17.50;99.90;;;;;;5074988;28;20017;-76
2022/05/12 12:22:26;;;;;;;11.50;5.10;;;17.50;99.90;;;;;;5074907;28;20039;-75
2022/05/12 12:25:21;;;;;;;10.70;5.30;;;17.50;99.90;;;;;;5074660;28;20063;-76
2022/05/12 12:28:23;;;;;;;7.40;4.43;;;17.50;99.90;;;;;;5068198;28;20485;-75
2022/05/12 12:30:56;;;;;;;8.10;4.55;;;17.50;99.90;;;;;;5074690;28;20036;-76
2022/05/12 12:33:29;;;;;;;12.35;4.82;;;17.50;99.90;;;;;;5074472;28;20066;-75
2022/05/12 12:36:08;;;;;;;7.10;3.95;;;17.50;99.90;;;;;;5070842;28;20036;-76
2022/05/12 12:38:49;;;;;;;13.18;4.45;;;17.50;99.90;;;;;;5072180;28;20074;-76
2022/05/12 12:41:31;;;;;;;7.80;4.40;;;17.50;99.90;;;;;;5072242;28;20376;-77
2022/05/12 12:44:00;;;;;;;10.40;4.80;;;17.50;99.90;;;;;;5072679;28;20034;-76
2022/05/12 12:46:36;;;;;;;5.13;3.67;;;17.50;99.90;;;;;;5074894;28;20028;-76
2022/05/12 12:49:21;;;;;;;8.45;4.40;;;17.50;99.90;;;;;;5073072;28;20117;-76
2022/05/12 12:52:04;;;;;;;10.52;4.13;;;17.50;99.90;;;;;;5073771;28;20021;-76
2022/05/12 12:57:40;;;;;;;11.50;4.97;;;17.50;99.90;;;;;;5072400;28;20059;-76
2022/05/12 13:00:14;;;;;;;11.88;4.70;;;17.50;99.90;;;;;;5072522;28;20070;-77
2022/05/12 13:02:44;;;;;;;5.80;3.72;;;17.60;99.90;;;;;;5072588;28;20477;-77
2022/05/12 13:05:19;;;;;;;9.02;4.07;;;17.50;99.90;;;;;;5074352;28;20064;-76
2022/05/12 13:07:57;;;;;;;8.38;4.75;;;17.60;99.90;;;;;;5074837;28;20074;-77
2022/05/12 13:10:26;;;;;;;11.85;4.07;;;17.50;99.90;;;;;;5072717;28;20016;-77
2022/05/12 13:13:01;;;;;;;9.77;4.35;;;17.60;99.90;;;;;;5074095;28;20091;-76
2022/05/12 13:15:32;;;;;;;11.30;4.55;;;17.60;99.90;;;;;;5074242;28;20024;-77
2022/05/12 13:18:02;;;;;;;16.25;4.75;;;17.60;99.90;;;;;;5072130;28;20469;-73
2022/05/12 13:20:49;;;;;;;10.38;5.13;;;17.60;99.90;;;;;;5074103;28;20025;-77
2022/05/12 13:23:31;;;;;;;12.45;4.35;;;17.60;99.90;;;;;;5071668;28;20027;-75
2022/05/12 13:26:05;;;;;;;9.98;4.13;;;17.60;99.90;;;;;;5071818;28;20025;-76
2022/05/12 13:28:37;;;;;;;10.73;4.70;;;17.60;99.90;;;;;;5073864;28;20408;-77
2022/05/12 13:31:41;;;;;;;10.07;4.53;;;17.60;99.90;;;;;;5073885;28;20043;-77
2022/05/12 13:34:15;;;;;;;14.27;4.80;;;17.60;99.90;;;;;;5073691;28;20512;-77
2022/05/12 13:36:42;;;;;;;11.93;4.72;;;17.60;99.90;;;;;;5071723;28;20032;-77